sensor_id;sensor_type;location;lat;lon;timestamp;P1;durP1;ratioP1;P2;durP2;ratioP2
12112;SDS011;6120;52.250;8.478;2024-02-16T00:01:50;6.77;;;2.40;;
12112;SDS011;6120;52.250;8.478;2024-02-16T00:04:17;7.95;;;2.55;;
12112;SDS011;6120;52.250;8.478;2024-02-16T00:06:44;6.87;;;2.50;;
12112;SDS011;6120;52.250;8.478;2024-02-16T00:09:11;4.47;;;2.00;;
12112;SDS011;6120;52.250;8.478;2024-02-16T00:11:38;4.82;;;2.10;;
12112;SDS011;6120;52.250;8.478;2024-02-16T00:14:05;6.05;;;2.30;;
12112;SDS011;6120;52.250;8.478;2024-02-16T00:16:32;4.18;;;2.03;;
12112;SDS011;6120;52.250;8.478;2024-02-16T00:18:59;8.70;;;3.55;;
12112;SDS011;6120;52.250;8.478;2024-02-16T00:21:27;9.32;;;2.53;;
12112;SDS011;6120;52.250;8.478;2024-02-16T00:23:54;4.05;;;2.08;;
12112;SDS011;6120;52.250;8.478;2024-02-16T00:26:21;3.85;;;2.05;;
12112;SDS011;6120;52.250;8.478;2024-02-16T00:28:48;8.73;;;2.30;;
12112;SDS011;6120;52.250;8.478;2024-02-16T00:31:14;4.15;;;2.10;;
12112;SDS011;6120;52.250;8.478;2024-02-16T00:33:41;4.55;;;2.33;;
12112;SDS011;6120;52.250;8.478;2024-02-16T00:36:08;5.05;;;2.20;;
12112;SDS011;6120;52.250;8.478;2024-02-16T00:38:36;5.38;;;2.30;;
12112;SDS011;6120;52.250;8.478;2024-02-16T00:41:03;6.40;;;2.47;;
12112;SDS011;6120;52.250;8.478;2024-02-16T00:43:31;4.45;;;2.22;;
12112;SDS011;6120;52.250;8.478;2024-02-16T00:45:58;2.97;;;1.70;;
12112;SDS011;6120;52.250;8.478;2024-02-16T00:48:24;6.45;;;2.17;;
12112;SDS011;6120;52.250;8.478;2024-02-16T00:50:51;4.32;;;2.42;;
12112;SDS011;6120;52.250;8.478;2024-02-16T00:53:18;4.88;;;2.50;;
12112;SDS011;6120;52.250;8.478;2024-02-16T00:55:45;8.80;;;2.70;;
12112;SDS011;6120;52.250;8.478;2024-02-16T00:58:12;3.70;;;2.10;;
12112;SDS011;6120;52.250;8.478;2024-02-16T01:00:39;6.15;;;2.20;;
12112;SDS011;6120;52.250;8.478;2024-02-16T01:03:06;7.40;;;2.35;;
12112;SDS011;6120;52.250;8.478;2024-02-16T01:05:33;4.60;;;2.22;;
12112;SDS011;6120;52.250;8.478;2024-02-16T01:07:59;5.45;;;2.10;;
12112;SDS011;6120;52.250;8.478;2024-02-16T01:10:26;4.03;;;2.13;;
12112;SDS011;6120;52.250;8.478;2024-02-16T01:12:53;3.15;;;1.95;;
12112;SDS011;6120;52.250;8.478;2024-02-16T01:15:22;3.33;;;1.88;;
12112;SDS011;6120;52.250;8.478;2024-02-16T01:17:49;6.50;;;1.90;;
12112;SDS011;6120;52.250;8.478;2024-02-16T01:20:16;5.75;;;2.50;;
12112;SDS011;6120;52.250;8.478;2024-02-16T01:22:42;3.47;;;1.90;;
12112;SDS011;6120;52.250;8.478;2024-02-16T01:25:09;5.38;;;1.95;;
12112;SDS011;6120;52.250;8.478;2024-02-16T01:27:36;4.18;;;2.10;;
12112;SDS011;6120;52.250;8.478;2024-02-16T01:30:03;3.95;;;2.22;;
12112;SDS011;6120;52.250;8.478;2024-02-16T01:32:30;4.53;;;2.03;;
12112;SDS011;6120;52.250;8.478;2024-02-16T01:34:57;5.88;;;2.20;;
12112;SDS011;6120;52.250;8.478;2024-02-16T01:37:24;6.25;;;2.42;;
12112;SDS011;6120;52.250;8.478;2024-02-16T01:39:51;4.40;;;2.00;;
12112;SDS011;6120;52.250;8.478;2024-02-16T01:42:19;4.40;;;2.30;;
12112;SDS011;6120;52.250;8.478;2024-02-16T01:44:46;2.88;;;1.80;;
12112;SDS011;6120;52.250;8.478;2024-02-16T01:47:13;5.85;;;2.15;;
12112;SDS011;6120;52.250;8.478;2024-02-16T01:49:40;6.63;;;2.10;;
12112;SDS011;6120;52.250;8.478;2024-02-16T01:52:07;4.20;;;2.13;;
12112;SDS011;6120;52.250;8.478;2024-02-16T01:54:33;4.57;;;1.90;;
12112;SDS011;6120;52.250;8.478;2024-02-16T01:57:00;6.43;;;2.10;;
12112;SDS011;6120;52.250;8.478;2024-02-16T01:59:27;3.65;;;1.98;;
12112;SDS011;6120;52.250;8.478;2024-02-16T02:01:55;3.95;;;2.28;;
12112;SDS011;6120;52.250;8.478;2024-02-16T02:04:22;7.28;;;2.38;;
12112;SDS011;6120;52.250;8.478;2024-02-16T02:06:49;7.72;;;2.40;;
12112;SDS011;6120;52.250;8.478;2024-02-16T02:09:16;4.43;;;2.30;;
12112;SDS011;6120;52.250;8.478;2024-02-16T02:11:43;7.60;;;2.65;;
12112;SDS011;6120;52.250;8.478;2024-02-16T02:14:10;3.50;;;2.05;;
12112;SDS011;6120;52.250;8.478;2024-02-16T02:16:37;5.35;;;2.20;;
12112;SDS011;6120;52.250;8.478;2024-02-16T02:19:20;3.95;;;2.38;;
12112;SDS011;6120;52.250;8.478;2024-02-16T02:21:47;6.13;;;2.25;;
12112;SDS011;6120;52.250;8.478;2024-02-16T02:24:14;4.55;;;2.35;;
12112;SDS011;6120;52.250;8.478;2024-02-16T02:26:41;5.13;;;2.40;;
12112;SDS011;6120;52.250;8.478;2024-02-16T02:29:07;7.88;;;2.35;;
12112;SDS011;6120;52.250;8.478;2024-02-16T02:31:34;4.78;;;2.35;;
12112;SDS011;6120;52.250;8.478;2024-02-16T02:34:01;6.43;;;2.25;;
12112;SDS011;6120;52.250;8.478;2024-02-16T02:36:28;10.55;;;2.47;;
12112;SDS011;6120;52.250;8.478;2024-02-16T02:38:55;3.40;;;2.20;;
12112;SDS011;6120;52.250;8.478;2024-02-16T02:41:21;5.80;;;2.42;;
12112;SDS011;6120;52.250;8.478;2024-02-16T02:43:48;4.03;;;2.30;;
12112;SDS011;6120;52.250;8.478;2024-02-16T02:46:15;4.38;;;1.90;;
12112;SDS011;6120;52.250;8.478;2024-02-16T02:48:43;4.32;;;2.08;;
12112;SDS011;6120;52.250;8.478;2024-02-16T02:51:17;5.50;;;2.20;;
12112;SDS011;6120;52.250;8.478;2024-02-16T02:53:43;5.15;;;2.25;;
12112;SDS011;6120;52.250;8.478;2024-02-16T02:56:10;5.68;;;2.40;;
12112;SDS011;6120;52.250;8.478;2024-02-16T02:58:38;4.15;;;2.22;;
12112;SDS011;6120;52.250;8.478;2024-02-16T03:01:05;5.28;;;2.22;;
12112;SDS011;6120;52.250;8.478;2024-02-16T03:03:34;4.07;;;2.13;;
12112;SDS011;6120;52.250;8.478;2024-02-16T03:06:01;5.10;;;1.75;;
12112;SDS011;6120;52.250;8.478;2024-02-16T03:08:30;2.67;;;1.95;;
12112;SDS011;6120;52.250;8.478;2024-02-16T03:10:57;5.03;;;2.40;;
12112;SDS011;6120;52.250;8.478;2024-02-16T03:13:27;4.65;;;2.35;;
12112;SDS011;6120;52.250;8.478;2024-02-16T03:15:54;4.88;;;2.42;;
12112;SDS011;6120;52.250;8.478;2024-02-16T03:18:21;6.70;;;2.50;;
12112;SDS011;6120;52.250;8.478;2024-02-16T03:20:48;3.20;;;1.90;;
12112;SDS011;6120;52.250;8.478;2024-02-16T03:23:17;6.10;;;2.50;;
12112;SDS011;6120;52.250;8.478;2024-02-16T03:25:44;4.18;;;2.28;;
12112;SDS011;6120;52.250;8.478;2024-02-16T03:28:11;3.97;;;2.00;;
12112;SDS011;6120;52.250;8.478;2024-02-16T03:30:39;5.50;;;2.40;;
12112;SDS011;6120;52.250;8.478;2024-02-16T03:33:06;7.15;;;2.40;;
12112;SDS011;6120;52.250;8.478;2024-02-16T03:35:34;4.95;;;2.20;;
12112;SDS011;6120;52.250;8.478;2024-02-16T03:38:02;4.33;;;2.13;;
12112;SDS011;6120;52.250;8.478;2024-02-16T03:40:29;6.70;;;2.28;;
12112;SDS011;6120;52.250;8.478;2024-02-16T03:42:56;3.83;;;2.10;;
12112;SDS011;6120;52.250;8.478;2024-02-16T03:45:23;4.78;;;2.22;;
12112;SDS011;6120;52.250;8.478;2024-02-16T03:47:51;3.38;;;2.13;;
12112;SDS011;6120;52.250;8.478;2024-02-16T03:50:21;4.47;;;1.70;;
12112;SDS011;6120;52.250;8.478;2024-02-16T03:52:49;4.40;;;2.00;;
12112;SDS011;6120;52.250;8.478;2024-02-16T03:55:15;6.60;;;2.10;;
12112;SDS011;6120;52.250;8.478;2024-02-16T03:57:42;8.43;;;2.13;;
12112;SDS011;6120;52.250;8.478;2024-02-16T04:00:09;4.05;;;1.85;;
12112;SDS011;6120;52.250;8.478;2024-02-16T04:02:36;4.45;;;2.47;;
12112;SDS011;6120;52.250;8.478;2024-02-16T04:05:03;3.72;;;1.85;;
12112;SDS011;6120;52.250;8.478;2024-02-16T04:07:30;6.72;;;3.40;;
12112;SDS011;6120;52.250;8.478;2024-02-16T04:09:57;5.43;;;2.55;;
12112;SDS011;6120;52.250;8.478;2024-02-16T04:12:24;3.10;;;2.10;;
12112;SDS011;6120;52.250;8.478;2024-02-16T04:14:51;8.77;;;2.72;;
12112;SDS011;6120;52.250;8.478;2024-02-16T04:17:17;5.95;;;2.67;;
12112;SDS011;6120;52.250;8.478;2024-02-16T04:19:45;5.57;;;2.28;;
12112;SDS011;6120;52.250;8.478;2024-02-16T04:22:12;6.55;;;2.95;;
12112;SDS011;6120;52.250;8.478;2024-02-16T04:24:38;4.07;;;2.30;;
12112;SDS011;6120;52.250;8.478;2024-02-16T04:27:05;4.68;;;2.30;;
12112;SDS011;6120;52.250;8.478;2024-02-16T04:29:34;4.07;;;2.13;;
12112;SDS011;6120;52.250;8.478;2024-02-16T04:32:01;4.65;;;1.85;;
12112;SDS011;6120;52.250;8.478;2024-02-16T04:34:28;6.90;;;2.10;;
12112;SDS011;6120;52.250;8.478;2024-02-16T04:36:55;5.68;;;2.10;;
12112;SDS011;6120;52.250;8.478;2024-02-16T04:39:22;5.18;;;1.98;;
12112;SDS011;6120;52.250;8.478;2024-02-16T04:41:49;4.32;;;2.17;;
12112;SDS011;6120;52.250;8.478;2024-02-16T04:44:18;4.50;;;2.03;;
12112;SDS011;6120;52.250;8.478;2024-02-16T04:46:45;3.30;;;1.95;;
12112;SDS011;6120;52.250;8.478;2024-02-16T04:49:11;3.47;;;2.00;;
12112;SDS011;6120;52.250;8.478;2024-02-16T04:51:39;5.13;;;2.17;;
12112;SDS011;6120;52.250;8.478;2024-02-16T04:54:07;4.93;;;2.05;;
12112;SDS011;6120;52.250;8.478;2024-02-16T04:56:34;4.13;;;2.00;;
12112;SDS011;6120;52.250;8.478;2024-02-16T04:59:00;5.68;;;1.90;;
12112;SDS011;6120;52.250;8.478;2024-02-16T05:01:28;5.35;;;1.90;;
12112;SDS011;6120;52.250;8.478;2024-02-16T05:03:56;3.95;;;2.10;;
12112;SDS011;6120;52.250;8.478;2024-02-16T05:06:23;4.07;;;2.10;;
12112;SDS011;6120;52.250;8.478;2024-02-16T05:08:51;4.03;;;1.85;;
12112;SDS011;6120;52.250;8.478;2024-02-16T05:11:18;3.53;;;2.05;;
12112;SDS011;6120;52.250;8.478;2024-02-16T05:13:45;4.40;;;2.20;;
12112;SDS011;6120;52.250;8.478;2024-02-16T05:16:12;4.93;;;1.98;;
12112;SDS011;6120;52.250;8.478;2024-02-16T05:18:38;3.75;;;2.20;;
12112;SDS011;6120;52.250;8.478;2024-02-16T05:21:07;5.35;;;2.00;;
12112;SDS011;6120;52.250;8.478;2024-02-16T05:23:34;6.88;;;2.28;;
12112;SDS011;6120;52.250;8.478;2024-02-16T05:26:00;5.70;;;1.90;;
12112;SDS011;6120;52.250;8.478;2024-02-16T05:28:27;5.40;;;1.98;;
12112;SDS011;6120;52.250;8.478;2024-02-16T05:30:55;3.40;;;2.17;;
12112;SDS011;6120;52.250;8.478;2024-02-16T05:33:22;5.28;;;1.90;;
12112;SDS011;6120;52.250;8.478;2024-02-16T05:35:49;5.53;;;2.17;;
12112;SDS011;6120;52.250;8.478;2024-02-16T05:38:22;5.70;;;2.00;;
12112;SDS011;6120;52.250;8.478;2024-02-16T05:40:59;4.55;;;2.17;;
12112;SDS011;6120;52.250;8.478;2024-02-16T05:43:26;4.85;;;1.77;;
12112;SDS011;6120;52.250;8.478;2024-02-16T05:45:53;3.55;;;2.05;;
12112;SDS011;6120;52.250;8.478;2024-02-16T05:48:20;3.83;;;1.77;;
12112;SDS011;6120;52.250;8.478;2024-02-16T05:50:48;4.70;;;2.08;;
12112;SDS011;6120;52.250;8.478;2024-02-16T05:53:15;4.85;;;1.73;;
12112;SDS011;6120;52.250;8.478;2024-02-16T05:55:42;4.75;;;2.40;;
12112;SDS011;6120;52.250;8.478;2024-02-16T06:00:38;5.53;;;2.15;;
12112;SDS011;6120;52.250;8.478;2024-02-16T06:03:05;4.30;;;1.95;;
12112;SDS011;6120;52.250;8.478;2024-02-16T06:05:32;5.45;;;2.25;;
12112;SDS011;6120;52.250;8.478;2024-02-16T06:07:59;3.15;;;1.83;;
12112;SDS011;6120;52.250;8.478;2024-02-16T06:10:27;5.50;;;2.10;;
12112;SDS011;6120;52.250;8.478;2024-02-16T06:12:53;3.30;;;2.15;;
12112;SDS011;6120;52.250;8.478;2024-02-16T06:15:20;4.25;;;2.10;;
12112;SDS011;6120;52.250;8.478;2024-02-16T06:17:50;5.70;;;2.17;;
12112;SDS011;6120;52.250;8.478;2024-02-16T06:20:17;5.32;;;2.53;;
12112;SDS011;6120;52.250;8.478;2024-02-16T06:22:46;3.60;;;2.17;;
12112;SDS011;6120;52.250;8.478;2024-02-16T06:25:14;4.82;;;2.20;;
12112;SDS011;6120;52.250;8.478;2024-02-16T06:27:41;5.50;;;2.10;;
12112;SDS011;6120;52.250;8.478;2024-02-16T06:30:09;4.07;;;2.13;;
12112;SDS011;6120;52.250;8.478;2024-02-16T06:32:40;4.68;;;2.00;;
12112;SDS011;6120;52.250;8.478;2024-02-16T06:35:07;5.07;;;2.33;;
12112;SDS011;6120;52.250;8.478;2024-02-16T06:37:34;4.40;;;2.42;;
12112;SDS011;6120;52.250;8.478;2024-02-16T06:42:33;5.57;;;2.40;;
12112;SDS011;6120;52.250;8.478;2024-02-16T06:45:01;5.65;;;2.40;;
12112;SDS011;6120;52.250;8.478;2024-02-16T06:47:29;5.85;;;2.22;;
12112;SDS011;6120;52.250;8.478;2024-02-16T06:49:56;5.90;;;2.28;;
12112;SDS011;6120;52.250;8.478;2024-02-16T06:52:23;7.25;;;2.65;;
12112;SDS011;6120;52.250;8.478;2024-02-16T06:54:50;6.45;;;2.60;;
12112;SDS011;6120;52.250;8.478;2024-02-16T06:57:18;7.40;;;2.72;;
12112;SDS011;6120;52.250;8.478;2024-02-16T06:59:46;5.30;;;2.60;;
12112;SDS011;6120;52.250;8.478;2024-02-16T07:02:13;4.80;;;2.80;;
12112;SDS011;6120;52.250;8.478;2024-02-16T07:04:41;4.13;;;2.40;;
12112;SDS011;6120;52.250;8.478;2024-02-16T07:07:08;4.18;;;2.60;;
12112;SDS011;6120;52.250;8.478;2024-02-16T07:09:35;4.10;;;2.35;;
12112;SDS011;6120;52.250;8.478;2024-02-16T07:12:02;3.85;;;2.33;;
12112;SDS011;6120;52.250;8.478;2024-02-16T07:14:29;5.57;;;2.47;;
12112;SDS011;6120;52.250;8.478;2024-02-16T07:16:56;5.53;;;2.40;;
12112;SDS011;6120;52.250;8.478;2024-02-16T07:19:23;5.13;;;2.38;;
12112;SDS011;6120;52.250;8.478;2024-02-16T07:21:49;5.05;;;2.28;;
12112;SDS011;6120;52.250;8.478;2024-02-16T07:24:16;3.53;;;2.10;;
12112;SDS011;6120;52.250;8.478;2024-02-16T07:26:44;8.40;;;2.37;;
12112;SDS011;6120;52.250;8.478;2024-02-16T07:29:11;5.10;;;2.22;;
12112;SDS011;6120;52.250;8.478;2024-02-16T07:31:43;3.92;;;2.20;;
12112;SDS011;6120;52.250;8.478;2024-02-16T07:34:10;4.72;;;2.30;;
12112;SDS011;6120;52.250;8.478;2024-02-16T07:36:38;3.83;;;2.20;;
12112;SDS011;6120;52.250;8.478;2024-02-16T07:39:05;6.45;;;2.45;;
12112;SDS011;6120;52.250;8.478;2024-02-16T07:41:32;5.65;;;2.45;;
12112;SDS011;6120;52.250;8.478;2024-02-16T07:43:58;7.22;;;2.33;;
12112;SDS011;6120;52.250;8.478;2024-02-16T07:46:25;6.70;;;2.40;;
12112;SDS011;6120;52.250;8.478;2024-02-16T07:48:52;3.28;;;1.88;;
12112;SDS011;6120;52.250;8.478;2024-02-16T07:51:19;4.32;;;2.10;;
12112;SDS011;6120;52.250;8.478;2024-02-16T07:53:45;5.50;;;2.20;;
12112;SDS011;6120;52.250;8.478;2024-02-16T07:56:13;4.65;;;2.40;;
12112;SDS011;6120;52.250;8.478;2024-02-16T07:58:41;4.32;;;2.40;;
12112;SDS011;6120;52.250;8.478;2024-02-16T08:01:11;3.13;;;1.90;;
12112;SDS011;6120;52.250;8.478;2024-02-16T08:03:42;7.82;;;3.25;;
12112;SDS011;6120;52.250;8.478;2024-02-16T08:06:09;8.23;;;3.28;;
12112;SDS011;6120;52.250;8.478;2024-02-16T08:08:36;3.95;;;2.30;;
12112;SDS011;6120;52.250;8.478;2024-02-16T08:11:03;5.03;;;2.25;;
12112;SDS011;6120;52.250;8.478;2024-02-16T08:13:29;3.55;;;2.13;;
12112;SDS011;6120;52.250;8.478;2024-02-16T08:15:56;9.45;;;3.67;;
12112;SDS011;6120;52.250;8.478;2024-02-16T08:18:23;8.18;;;2.50;;
12112;SDS011;6120;52.250;8.478;2024-02-16T08:20:50;6.28;;;2.40;;
12112;SDS011;6120;52.250;8.478;2024-02-16T08:23:18;4.38;;;1.85;;
12112;SDS011;6120;52.250;8.478;2024-02-16T08:25:46;6.25;;;1.95;;
12112;SDS011;6120;52.250;8.478;2024-02-16T08:28:13;4.30;;;2.00;;
12112;SDS011;6120;52.250;8.478;2024-02-16T08:30:40;4.90;;;2.10;;
12112;SDS011;6120;52.250;8.478;2024-02-16T08:33:10;6.53;;;2.33;;
12112;SDS011;6120;52.250;8.478;2024-02-16T08:35:39;8.23;;;2.53;;
12112;SDS011;6120;52.250;8.478;2024-02-16T08:38:06;5.15;;;2.22;;
12112;SDS011;6120;52.250;8.478;2024-02-16T08:40:37;6.55;;;2.42;;
12112;SDS011;6120;52.250;8.478;2024-02-16T08:43:05;5.90;;;2.33;;
12112;SDS011;6120;52.250;8.478;2024-02-16T08:45:33;6.18;;;2.20;;
12112;SDS011;6120;52.250;8.478;2024-02-16T08:48:00;5.00;;;2.30;;
12112;SDS011;6120;52.250;8.478;2024-02-16T08:50:30;5.50;;;2.08;;
12112;SDS011;6120;52.250;8.478;2024-02-16T08:52:57;5.93;;;2.17;;
12112;SDS011;6120;52.250;8.478;2024-02-16T08:55:24;4.85;;;1.92;;
12112;SDS011;6120;52.250;8.478;2024-02-16T08:57:50;4.15;;;2.22;;
12112;SDS011;6120;52.250;8.478;2024-02-16T09:00:18;4.47;;;1.95;;
12112;SDS011;6120;52.250;8.478;2024-02-16T09:02:49;5.60;;;2.20;;
12112;SDS011;6120;52.250;8.478;2024-02-16T09:05:16;5.15;;;2.03;;
12112;SDS011;6120;52.250;8.478;2024-02-16T09:07:43;4.32;;;1.67;;
12112;SDS011;6120;52.250;8.478;2024-02-16T09:10:10;10.38;;;2.30;;
12112;SDS011;6120;52.250;8.478;2024-02-16T09:12:38;6.88;;;2.53;;
12112;SDS011;6120;52.250;8.478;2024-02-16T09:15:05;6.40;;;2.10;;
12112;SDS011;6120;52.250;8.478;2024-02-16T09:17:32;4.18;;;1.83;;
12112;SDS011;6120;52.250;8.478;2024-02-16T09:19:59;3.67;;;1.95;;
12112;SDS011;6120;52.250;8.478;2024-02-16T09:22:26;3.97;;;1.80;;
12112;SDS011;6120;52.250;8.478;2024-02-16T09:24:55;4.60;;;1.85;;
12112;SDS011;6120;52.250;8.478;2024-02-16T09:27:26;3.53;;;1.63;;
12112;SDS011;6120;52.250;8.478;2024-02-16T09:32:21;4.97;;;1.77;;
12112;SDS011;6120;52.250;8.478;2024-02-16T09:34:49;5.65;;;2.03;;
12112;SDS011;6120;52.250;8.478;2024-02-16T09:37:17;4.55;;;1.98;;
12112;SDS011;6120;52.250;8.478;2024-02-16T09:39:44;3.10;;;1.45;;
12112;SDS011;6120;52.250;8.478;2024-02-16T09:42:11;5.20;;;1.70;;
12112;SDS011;6120;52.250;8.478;2024-02-16T09:44:41;3.55;;;1.70;;
12112;SDS011;6120;52.250;8.478;2024-02-16T09:47:09;6.38;;;1.60;;
12112;SDS011;6120;52.250;8.478;2024-02-16T09:49:38;4.20;;;1.60;;
12112;SDS011;6120;52.250;8.478;2024-02-16T09:52:08;5.72;;;2.70;;
12112;SDS011;6120;52.250;8.478;2024-02-16T09:54:37;4.07;;;1.67;;
12112;SDS011;6120;52.250;8.478;2024-02-16T09:57:08;6.20;;;1.98;;
12112;SDS011;6120;52.250;8.478;2024-02-16T09:59:36;5.68;;;2.20;;
12112;SDS011;6120;52.250;8.478;2024-02-16T10:02:03;7.13;;;1.92;;
12112;SDS011;6120;52.250;8.478;2024-02-16T10:04:31;8.80;;;2.63;;
12112;SDS011;6120;52.250;8.478;2024-02-16T10:07:02;6.60;;;2.28;;
12112;SDS011;6120;52.250;8.478;2024-02-16T10:09:38;7.55;;;2.13;;
12112;SDS011;6120;52.250;8.478;2024-02-16T10:12:05;6.43;;;2.35;;
12112;SDS011;6120;52.250;8.478;2024-02-16T10:14:33;6.15;;;2.08;;
12112;SDS011;6120;52.250;8.478;2024-02-16T10:17:00;5.97;;;2.08;;
12112;SDS011;6120;52.250;8.478;2024-02-16T10:19:29;5.30;;;2.40;;
12112;SDS011;6120;52.250;8.478;2024-02-16T10:22:07;5.60;;;2.28;;
12112;SDS011;6120;52.250;8.478;2024-02-16T10:24:35;11.88;;;2.00;;
12112;SDS011;6120;52.250;8.478;2024-02-16T10:27:02;5.20;;;2.13;;
12112;SDS011;6120;52.250;8.478;2024-02-16T10:29:29;9.20;;;2.53;;
12112;SDS011;6120;52.250;8.478;2024-02-16T10:31:56;8.75;;;2.15;;
12112;SDS011;6120;52.250;8.478;2024-02-16T10:34:23;5.15;;;2.10;;
12112;SDS011;6120;52.250;8.478;2024-02-16T10:36:52;6.25;;;2.13;;
12112;SDS011;6120;52.250;8.478;2024-02-16T10:39:19;6.55;;;2.00;;
12112;SDS011;6120;52.250;8.478;2024-02-16T10:41:46;6.78;;;2.30;;
12112;SDS011;6120;52.250;8.478;2024-02-16T10:44:15;7.22;;;2.63;;
12112;SDS011;6120;52.250;8.478;2024-02-16T10:46:41;6.72;;;2.22;;
12112;SDS011;6120;52.250;8.478;2024-02-16T10:49:08;5.43;;;2.30;;
12112;SDS011;6120;52.250;8.478;2024-02-16T10:54:06;6.45;;;2.40;;
12112;SDS011;6120;52.250;8.478;2024-02-16T10:56:35;5.30;;;2.00;;
12112;SDS011;6120;52.250;8.478;2024-02-16T10:59:03;7.60;;;2.35;;
12112;SDS011;6120;52.250;8.478;2024-02-16T11:04:02;8.57;;;2.50;;
12112;SDS011;6120;52.250;8.478;2024-02-16T11:06:30;7.15;;;2.00;;
12112;SDS011;6120;52.250;8.478;2024-02-16T11:09:02;4.85;;;2.10;;
12112;SDS011;6120;52.250;8.478;2024-02-16T11:11:37;9.38;;;2.15;;
12112;SDS011;6120;52.250;8.478;2024-02-16T11:14:03;11.63;;;2.63;;
12112;SDS011;6120;52.250;8.478;2024-02-16T11:16:45;7.40;;;3.00;;
12112;SDS011;6120;52.250;8.478;2024-02-16T11:19:12;5.47;;;2.60;;
12112;SDS011;6120;52.250;8.478;2024-02-16T11:21:58;5.50;;;2.42;;
12112;SDS011;6120;52.250;8.478;2024-02-16T11:24:32;6.50;;;2.30;;
12112;SDS011;6120;52.250;8.478;2024-02-16T11:27:03;9.05;;;2.55;;
12112;SDS011;6120;52.250;8.478;2024-02-16T11:29:34;8.05;;;2.28;;
12112;SDS011;6120;52.250;8.478;2024-02-16T11:32:02;8.93;;;2.75;;
12112;SDS011;6120;52.250;8.478;2024-02-16T11:34:29;15.02;;;2.55;;
12112;SDS011;6120;52.250;8.478;2024-02-16T11:37:03;6.57;;;2.33;;
12112;SDS011;6120;52.250;8.478;2024-02-16T11:39:31;5.07;;;2.55;;
12112;SDS011;6120;52.250;8.478;2024-02-16T11:42:05;7.38;;;2.50;;
12112;SDS011;6120;52.250;8.478;2024-02-16T11:44:34;8.40;;;2.55;;
12112;SDS011;6120;52.250;8.478;2024-02-16T11:47:02;7.65;;;2.70;;
12112;SDS011;6120;52.250;8.478;2024-02-16T11:49:29;7.10;;;2.58;;
12112;SDS011;6120;52.250;8.478;2024-02-16T11:51:59;12.02;;;2.80;;
12112;SDS011;6120;52.250;8.478;2024-02-16T11:54:26;4.45;;;2.50;;
12112;SDS011;6120;52.250;8.478;2024-02-16T11:56:53;6.88;;;2.50;;
12112;SDS011;6120;52.250;8.478;2024-02-16T11:59:20;5.50;;;2.65;;
12112;SDS011;6120;52.250;8.478;2024-02-16T12:01:56;5.35;;;2.83;;
12112;SDS011;6120;52.250;8.478;2024-02-16T12:04:25;8.82;;;3.03;;
12112;SDS011;6120;52.250;8.478;2024-02-16T12:09:27;6.22;;;2.72;;
12112;SDS011;6120;52.250;8.478;2024-02-16T12:11:54;5.28;;;2.70;;
12112;SDS011;6120;52.250;8.478;2024-02-16T12:14:22;5.30;;;2.80;;
12112;SDS011;6120;52.250;8.478;2024-02-16T12:16:55;9.48;;;2.83;;
12112;SDS011;6120;52.250;8.478;2024-02-16T12:19:22;6.80;;;3.00;;
12112;SDS011;6120;52.250;8.478;2024-02-16T12:21:49;7.25;;;2.97;;
12112;SDS011;6120;52.250;8.478;2024-02-16T12:24:19;10.15;;;2.80;;
12112;SDS011;6120;52.250;8.478;2024-02-16T12:26:46;10.60;;;3.00;;
12112;SDS011;6120;52.250;8.478;2024-02-16T12:29:13;6.05;;;2.45;;
12112;SDS011;6120;52.250;8.478;2024-02-16T12:31:40;8.88;;;3.03;;
12112;SDS011;6120;52.250;8.478;2024-02-16T12:34:07;9.90;;;3.22;;
12112;SDS011;6120;52.250;8.478;2024-02-16T12:36:35;14.10;;;3.50;;
12112;SDS011;6120;52.250;8.478;2024-02-16T12:39:02;8.70;;;3.15;;
12112;SDS011;6120;52.250;8.478;2024-02-16T12:41:32;8.10;;;3.00;;
12112;SDS011;6120;52.250;8.478;2024-02-16T12:44:00;7.20;;;3.03;;
12112;SDS011;6120;52.250;8.478;2024-02-16T12:46:27;7.45;;;3.30;;
12112;SDS011;6120;52.250;8.478;2024-02-16T12:48:57;10.52;;;3.75;;
12112;SDS011;6120;52.250;8.478;2024-02-16T12:51:24;8.95;;;3.80;;
12112;SDS011;6120;52.250;8.478;2024-02-16T12:53:51;7.97;;;3.40;;
12112;SDS011;6120;52.250;8.478;2024-02-16T12:56:19;9.45;;;3.55;;
12112;SDS011;6120;52.250;8.478;2024-02-16T12:58:47;11.52;;;4.18;;
12112;SDS011;6120;52.250;8.478;2024-02-16T13:01:14;13.57;;;3.60;;
12112;SDS011;6120;52.250;8.478;2024-02-16T13:03:51;11.70;;;4.03;;
12112;SDS011;6120;52.250;8.478;2024-02-16T13:06:18;9.70;;;3.72;;
12112;SDS011;6120;52.250;8.478;2024-02-16T13:08:50;9.75;;;4.20;;
12112;SDS011;6120;52.250;8.478;2024-02-16T13:11:17;14.07;;;4.47;;
12112;SDS011;6120;52.250;8.478;2024-02-16T13:13:44;8.63;;;3.88;;
12112;SDS011;6120;52.250;8.478;2024-02-16T13:16:11;8.80;;;4.50;;
12112;SDS011;6120;52.250;8.478;2024-02-16T13:18:37;11.85;;;5.82;;
12112;SDS011;6120;52.250;8.478;2024-02-16T13:21:04;11.18;;;5.20;;
12112;SDS011;6120;52.250;8.478;2024-02-16T13:23:31;11.77;;;5.57;;
12112;SDS011;6120;52.250;8.478;2024-02-16T13:25:58;11.73;;;5.93;;
12112;SDS011;6120;52.250;8.478;2024-02-16T13:28:24;14.38;;;6.10;;
12112;SDS011;6120;52.250;8.478;2024-02-16T13:30:51;12.73;;;6.57;;
12112;SDS011;6120;52.250;8.478;2024-02-16T13:33:18;17.48;;;7.25;;
12112;SDS011;6120;52.250;8.478;2024-02-16T13:35:45;15.98;;;6.80;;
12112;SDS011;6120;52.250;8.478;2024-02-16T13:38:11;17.48;;;7.07;;
12112;SDS011;6120;52.250;8.478;2024-02-16T13:40:38;12.75;;;6.50;;
12112;SDS011;6120;52.250;8.478;2024-02-16T13:45:52;12.77;;;6.95;;
12112;SDS011;6120;52.250;8.478;2024-02-16T13:48:20;12.70;;;6.68;;
12112;SDS011;6120;52.250;8.478;2024-02-16T13:50:48;12.38;;;7.13;;
12112;SDS011;6120;52.250;8.478;2024-02-16T13:53:16;12.43;;;7.13;;
12112;SDS011;6120;52.250;8.478;2024-02-16T13:55:47;14.77;;;7.15;;
12112;SDS011;6120;52.250;8.478;2024-02-16T13:58:14;17.42;;;6.95;;
12112;SDS011;6120;52.250;8.478;2024-02-16T14:00:41;12.50;;;6.57;;
12112;SDS011;6120;52.250;8.478;2024-02-16T14:03:08;13.50;;;6.35;;
12112;SDS011;6120;52.250;8.478;2024-02-16T14:05:37;10.63;;;6.25;;
12112;SDS011;6120;52.250;8.478;2024-02-16T14:08:04;14.05;;;6.55;;
12112;SDS011;6120;52.250;8.478;2024-02-16T14:10:34;15.77;;;7.07;;
12112;SDS011;6120;52.250;8.478;2024-02-16T14:13:02;15.55;;;6.57;;
12112;SDS011;6120;52.250;8.478;2024-02-16T14:15:29;14.90;;;6.78;;
12112;SDS011;6120;52.250;8.478;2024-02-16T14:17:58;15.50;;;7.82;;
12112;SDS011;6120;52.250;8.478;2024-02-16T14:20:31;16.98;;;7.63;;
12112;SDS011;6120;52.250;8.478;2024-02-16T14:22:58;16.38;;;7.72;;
12112;SDS011;6120;52.250;8.478;2024-02-16T14:25:25;18.33;;;7.85;;
12112;SDS011;6120;52.250;8.478;2024-02-16T14:27:52;15.73;;;7.53;;
12112;SDS011;6120;52.250;8.478;2024-02-16T14:30:18;15.02;;;7.50;;
12112;SDS011;6120;52.250;8.478;2024-02-16T14:32:46;13.60;;;7.72;;
12112;SDS011;6120;52.250;8.478;2024-02-16T14:35:14;17.95;;;7.80;;
12112;SDS011;6120;52.250;8.478;2024-02-16T14:37:41;15.85;;;8.30;;
12112;SDS011;6120;52.250;8.478;2024-02-16T14:40:08;17.58;;;8.50;;
12112;SDS011;6120;52.250;8.478;2024-02-16T14:42:36;17.17;;;9.93;;
12112;SDS011;6120;52.250;8.478;2024-02-16T14:45:05;19.50;;;10.25;;
12112;SDS011;6120;52.250;8.478;2024-02-16T14:47:36;15.07;;;8.63;;
12112;SDS011;6120;52.250;8.478;2024-02-16T14:50:04;23.42;;;9.82;;
12112;SDS011;6120;52.250;8.478;2024-02-16T14:52:34;21.95;;;9.90;;
12112;SDS011;6120;52.250;8.478;2024-02-16T14:55:01;23.00;;;11.60;;
12112;SDS011;6120;52.250;8.478;2024-02-16T14:57:27;17.77;;;9.32;;
12112;SDS011;6120;52.250;8.478;2024-02-16T14:59:54;22.08;;;9.88;;
12112;SDS011;6120;52.250;8.478;2024-02-16T15:02:23;16.25;;;8.73;;
12112;SDS011;6120;52.250;8.478;2024-02-16T15:04:50;20.27;;;9.75;;
12112;SDS011;6120;52.250;8.478;2024-02-16T15:09:45;21.92;;;10.35;;
12112;SDS011;6120;52.250;8.478;2024-02-16T15:12:12;18.60;;;9.93;;
12112;SDS011;6120;52.250;8.478;2024-02-16T15:14:39;16.38;;;9.52;;
12112;SDS011;6120;52.250;8.478;2024-02-16T15:17:06;18.08;;;10.55;;
12112;SDS011;6120;52.250;8.478;2024-02-16T15:19:32;15.75;;;9.88;;
12112;SDS011;6120;52.250;8.478;2024-02-16T15:21:59;17.23;;;9.27;;